createdAt,value
2022-11-05T00:01:42.626Z,100.00
2022-11-05T00:04:30.898Z,100.00
2022-11-05T00:07:20.660Z,100.00
2022-11-05T00:10:44.760Z,100.00
2022-11-05T00:13:30.059Z,100.00
2022-11-05T00:16:15.362Z,100.00
2022-11-05T00:19:00.844Z,100.00
2022-11-05T00:21:46.115Z,100.00
2022-11-05T00:24:31.788Z,100.00
2022-11-05T00:27:16.969Z,100.00
2022-11-05T00:30:02.263Z,100.00
2022-11-05T00:32:49.131Z,100.00
2022-11-05T00:35:34.284Z,100.00
2022-11-05T00:38:19.367Z,100.00
2022-11-05T00:41:04.827Z,100.00
2022-11-05T00:43:50.022Z,100.00
2022-11-05T00:46:35.349Z,100.00
2022-11-05T00:49:20.361Z,100.00
2022-11-05T00:52:05.391Z,100.00
2022-11-05T00:54:50.453Z,100.00
2022-11-05T00:57:35.676Z,100.00
2022-11-05T01:00:21.628Z,100.00
2022-11-05T01:03:10.007Z,100.00
2022-11-05T01:05:58.133Z,100.00
2022-11-05T01:08:45.477Z,100.00
2022-11-05T01:11:30.629Z,100.00
2022-11-05T01:14:16.087Z,100.00
2022-11-05T01:17:01.290Z,100.00
2022-11-05T01:19:46.433Z,100.00
2022-11-05T01:22:31.862Z,100.00
2022-11-05T01:25:16.912Z,100.00
2022-11-05T01:28:03.207Z,100.00
2022-11-05T01:30:55.585Z,100.00
2022-11-05T01:33:40.834Z,100.00
2022-11-05T01:36:26.188Z,100.00
2022-11-05T01:39:11.313Z,100.00
2022-11-05T01:41:56.821Z,100.00
2022-11-05T01:45:03.443Z,100.00
2022-11-05T01:48:02.231Z,100.00
2022-11-05T01:50:55.337Z,100.00
2022-11-05T01:53:43.618Z,100.00
2022-11-05T01:56:40.618Z,100.00
2022-11-05T01:59:35.446Z,100.00
2022-11-05T02:02:21.212Z,100.00
2022-11-05T02:05:06.896Z,100.00
2022-11-05T02:07:53.479Z,100.00
2022-11-05T02:10:39.773Z,100.00
2022-11-05T02:13:25.218Z,100.00
2022-11-05T02:16:13.645Z,100.00
2022-11-05T02:19:07.617Z,100.00
2022-11-05T02:22:14.946Z,100.00
2022-11-05T02:25:02.452Z,100.00
2022-11-05T02:27:56.977Z,100.00
2022-11-05T02:31:01.312Z,100.00
2022-11-05T02:34:17.338Z,100.00
2022-11-05T02:37:17.114Z,100.00
2022-11-05T02:40:07.193Z,100.00
2022-11-05T02:43:15.367Z,100.00
2022-11-05T02:46:12.014Z,100.00
2022-11-05T02:49:09.403Z,100.00
2022-11-05T02:52:02.104Z,100.00
2022-11-05T02:55:03.761Z,100.00
2022-11-05T02:57:49.216Z,100.00
2022-11-05T03:00:53.387Z,100.00
2022-11-05T03:03:44.699Z,100.00
2022-11-05T03:06:52.622Z,100.00
2022-11-05T03:09:49.837Z,100.00
2022-11-05T03:12:53.812Z,100.00
2022-11-05T03:16:02.402Z,100.00
2022-11-05T03:18:50.781Z,100.00
2022-11-05T03:21:45.340Z,100.00
2022-11-05T03:24:34.100Z,100.00
2022-11-05T03:27:26.186Z,100.00
2022-11-05T03:30:13.738Z,100.00
2022-11-05T03:33:04.748Z,100.00
2022-11-05T03:36:00.612Z,100.00
2022-11-05T03:38:49.619Z,100.00
2022-11-05T03:41:38.377Z,100.00
2022-11-05T03:44:31.555Z,100.00
2022-11-05T03:47:26.380Z,100.00
2022-11-05T03:50:29.634Z,100.00
2022-11-05T03:53:18.321Z,100.00
2022-11-05T03:56:13.805Z,100.00
2022-11-05T03:59:01.631Z,100.00
2022-11-05T04:01:47.830Z,100.00
2022-11-05T04:04:33.372Z,100.00
2022-11-05T04:07:18.929Z,100.00
2022-11-05T04:10:04.524Z,100.00
2022-11-05T04:12:49.708Z,100.00
2022-11-05T04:15:35.117Z,100.00
2022-11-05T04:18:20.874Z,100.00
2022-11-05T04:21:07.120Z,100.00
2022-11-05T04:23:52.885Z,100.00
2022-11-05T04:26:40.971Z,100.00
2022-11-05T04:29:26.050Z,100.00
2022-11-05T04:32:11.106Z,100.00
2022-11-05T04:34:56.140Z,100.00
2022-11-05T04:37:41.177Z,100.00
2022-11-05T04:40:27.012Z,100.00
2022-11-05T04:43:15.416Z,100.00
2022-11-05T04:46:00.976Z,100.00
2022-11-05T04:48:46.553Z,100.00
2022-11-05T04:51:31.617Z,100.00
2022-11-05T04:54:17.180Z,100.00
2022-11-05T04:57:02.159Z,100.00
2022-11-05T04:59:50.347Z,100.00
2022-11-05T05:02:36.900Z,100.00
2022-11-05T05:05:22.535Z,100.00
2022-11-05T05:08:07.719Z,100.00
2022-11-05T05:10:53.020Z,100.00
2022-11-05T05:13:38.195Z,100.00
2022-11-05T05:16:26.011Z,100.00
2022-11-05T05:19:11.281Z,100.00
2022-11-05T05:21:56.920Z,100.00
2022-11-05T05:24:42.283Z,100.00
2022-11-05T05:27:28.382Z,100.00
2022-11-05T05:30:13.650Z,100.00
2022-11-05T05:33:02.548Z,100.00
2022-11-05T05:35:47.739Z,100.00
2022-11-05T05:38:33.833Z,100.00
2022-11-05T05:41:19.166Z,100.00
2022-11-05T05:44:05.508Z,100.00
2022-11-05T05:46:50.836Z,100.00
2022-11-05T05:49:36.215Z,100.00
2022-11-05T05:52:21.381Z,100.00
2022-11-05T05:55:06.752Z,100.00
2022-11-05T05:57:52.218Z,100.00
2022-11-05T06:00:37.722Z,100.00
2022-11-05T06:03:23.039Z,100.00
2022-11-05T06:06:13.199Z,100.00
2022-11-05T06:08:58.301Z,100.00
2022-11-05T06:11:43.709Z,100.00
2022-11-05T06:14:29.198Z,100.00
2022-11-05T06:17:14.548Z,100.00
2022-11-05T06:20:00.123Z,100.00
2022-11-05T06:22:54.499Z,100.00
2022-11-05T06:25:41.420Z,100.00
2022-11-05T06:28:27.234Z,100.00
2022-11-05T06:31:15.181Z,100.00
2022-11-05T06:34:04.223Z,100.00
2022-11-05T06:36:49.488Z,100.00
2022-11-05T06:39:34.518Z,100.00
2022-11-05T06:42:19.724Z,100.00
2022-11-05T06:45:05.598Z,100.00
2022-11-05T06:47:58.155Z,100.00
2022-11-05T06:50:45.211Z,100.00
2022-11-05T06:53:31.157Z,100.00
2022-11-05T06:56:16.446Z,100.00
2022-11-05T06:59:01.665Z,100.00
2022-11-05T07:01:47.233Z,100.00
2022-11-05T07:04:32.977Z,100.00
2022-11-05T07:07:18.197Z,100.00
2022-11-05T07:10:04.003Z,100.00
2022-11-05T07:12:49.537Z,100.00
2022-11-05T07:15:34.662Z,100.00
2022-11-05T07:18:19.943Z,100.00
2022-11-05T07:21:05.432Z,100.00
2022-11-05T07:23:50.919Z,100.00
2022-11-05T07:26:36.189Z,100.00
2022-11-05T07:29:21.427Z,100.00
2022-11-05T07:32:06.926Z,100.00
2022-11-05T07:34:52.313Z,100.00
2022-11-05T07:37:48.931Z,100.00
2022-11-05T07:40:33.723Z,100.00
2022-11-05T07:43:18.839Z,100.00
2022-11-05T07:46:04.117Z,100.00
2022-11-05T07:48:49.937Z,100.00
2022-11-05T07:51:35.218Z,100.00
2022-11-05T07:54:21.699Z,100.00
2022-11-05T07:57:07.113Z,100.00
2022-11-05T07:59:52.281Z,100.00
2022-11-05T08:02:38.057Z,100.00
2022-11-05T08:05:23.581Z,100.00
2022-11-05T08:08:09.849Z,100.00
2022-11-05T08:11:02.892Z,100.00
2022-11-05T08:13:47.937Z,100.00
2022-11-05T08:16:32.804Z,100.00
2022-11-05T08:19:17.964Z,100.00
2022-11-05T08:22:03.312Z,100.00
2022-11-05T08:24:48.582Z,100.00
2022-11-05T08:27:33.808Z,100.00
2022-11-05T08:30:19.159Z,100.00
2022-11-05T08:33:10.675Z,100.00
2022-11-05T08:35:56.953Z,100.00
2022-11-05T08:38:42.629Z,100.00
2022-11-05T08:41:28.417Z,100.00
2022-11-05T08:44:14.024Z,100.00
2022-11-05T08:46:59.495Z,100.00
2022-11-05T08:49:44.827Z,100.00
2022-11-05T08:52:30.144Z,100.00
2022-11-05T08:55:15.426Z,100.00
2022-11-05T08:58:03.424Z,100.00
2022-11-05T09:00:49.574Z,100.00
2022-11-05T09:03:35.202Z,100.00
2022-11-05T09:06:20.342Z,100.00
2022-11-05T09:09:05.802Z,100.00
2022-11-05T09:12:11.014Z,100.00
2022-11-05T09:14:59.488Z,100.00
2022-11-05T09:17:44.688Z,100.00
2022-11-05T09:20:30.006Z,100.00
2022-11-05T09:23:15.406Z,100.00
2022-11-05T09:26:02.325Z,100.00
2022-11-05T09:28:48.459Z,100.00
2022-11-05T09:31:33.715Z,100.00
2022-11-05T09:34:18.717Z,100.00
2022-11-05T09:37:04.411Z,100.00
2022-11-05T09:39:49.655Z,100.00
2022-11-05T09:42:41.599Z,100.00
2022-11-05T09:45:28.666Z,100.00
2022-11-05T09:48:17.556Z,100.00
2022-11-05T09:51:04.440Z,100.00
2022-11-05T09:53:49.871Z,100.00
2022-11-05T09:56:44.443Z,100.00
2022-11-05T09:59:40.531Z,100.00
2022-11-05T10:02:30.992Z,100.00
2022-11-05T10:05:18.778Z,100.00
2022-11-05T10:08:30.438Z,100.00
2022-11-05T10:11:25.427Z,100.00
2022-11-05T10:14:18.224Z,100.00
2022-11-05T10:17:25.156Z,100.00
2022-11-05T10:20:16.808Z,100.00
2022-11-05T10:23:16.317Z,100.00
2022-11-05T10:26:13.977Z,100.00
2022-11-05T10:28:59.569Z,99.72
2022-11-05T10:31:48.192Z,99.02
2022-11-05T10:34:39.109Z,98.79
2022-11-05T10:37:26.911Z,98.67
2022-11-05T10:40:36.661Z,98.67
2022-11-05T10:43:47.385Z,95.06
2022-11-05T10:46:37.597Z,95.39
2022-11-05T10:49:42.280Z,95.44
2022-11-05T10:52:31.684Z,94.14
2022-11-05T10:55:22.817Z,93.72
2022-11-05T10:58:17.223Z,93.48
2022-11-05T11:01:07.226Z,93.42
2022-11-05T11:04:05.611Z,94.04
2022-11-05T11:06:56.211Z,92.80
2022-11-05T11:09:48.337Z,92.61
2022-11-05T11:12:42.447Z,91.02
2022-11-05T11:15:30.058Z,91.17
2022-11-05T11:18:40.451Z,91.00
2022-11-05T11:21:25.814Z,89.66
2022-11-05T11:24:20.650Z,89.67
2022-11-05T11:27:11.198Z,88.61
2022-11-05T11:30:06.529Z,88.91
2022-11-05T11:33:03.472Z,88.60
2022-11-05T11:35:48.768Z,87.79
2022-11-05T11:38:35.772Z,88.73
2022-11-05T11:41:35.246Z,86.53
2022-11-05T11:44:26.029Z,86.06
2022-11-05T11:47:18.674Z,86.00
2022-11-05T11:50:03.894Z,85.69
2022-11-05T11:52:49.333Z,86.26
2022-11-05T11:55:34.127Z,85.24
2022-11-05T11:58:19.144Z,84.39
2022-11-05T12:01:15.658Z,84.98
2022-11-05T12:04:19.574Z,84.65
2022-11-05T12:07:23.806Z,81.99
2022-11-05T12:10:26.069Z,82.65
2022-11-05T12:13:21.368Z,81.66
2022-11-05T12:16:20.453Z,82.66
2022-11-05T12:19:40.828Z,81.60
2022-11-05T12:23:01.863Z,81.61
2022-11-05T12:26:10.455Z,81.68
2022-11-05T12:29:19.362Z,82.65
2022-11-05T12:32:23.679Z,82.85
2022-11-05T12:35:14.580Z,82.95
2022-11-05T12:38:47.451Z,83.36
2022-11-05T12:41:46.194Z,83.00
2022-11-05T12:45:00.462Z,83.16
2022-11-05T12:48:04.204Z,84.47
2022-11-05T12:51:00.695Z,84.04
2022-11-05T12:53:51.763Z,82.71
2022-11-05T12:56:45.291Z,82.65
2022-11-05T12:59:34.401Z,82.51
2022-11-05T13:02:26.524Z,82.63
2022-11-05T13:05:36.027Z,82.50
2022-11-05T13:08:31.222Z,83.11
2022-11-05T13:11:21.360Z,83.58
2022-11-05T13:14:06.613Z,83.57
2022-11-05T13:16:59.949Z,84.02
2022-11-05T13:20:05.654Z,83.75
2022-11-05T13:23:35.267Z,82.97
2022-11-05T13:26:47.367Z,83.40
2022-11-05T13:29:45.343Z,83.05
2022-11-05T13:32:40.834Z,82.41
2022-11-05T13:35:52.240Z,83.09
2022-11-05T13:38:41.504Z,83.14
2022-11-05T13:41:30.275Z,83.18
2022-11-05T13:44:27.909Z,82.81
2022-11-05T13:47:34.189Z,83.22
2022-11-05T13:50:25.289Z,83.72
2022-11-05T13:53:35.520Z,84.75
2022-11-05T13:56:29.476Z,84.32
2022-11-05T13:59:57.539Z,83.64
2022-11-05T14:02:59.780Z,84.67
2022-11-05T14:05:57.546Z,85.34
2022-11-05T14:08:46.265Z,84.13
2022-11-05T14:11:34.919Z,84.35
2022-11-05T14:14:29.541Z,83.93
2022-11-05T14:17:27.315Z,84.66
2022-11-05T14:20:56.278Z,84.90
2022-11-05T14:23:50.217Z,84.71
2022-11-05T14:26:35.486Z,84.98
2022-11-05T14:29:23.489Z,85.23
2022-11-05T14:32:17.638Z,85.62
2022-11-05T14:35:02.578Z,85.86
2022-11-05T14:37:53.836Z,85.63
2022-11-05T14:40:40.526Z,85.01
2022-11-05T14:43:27.752Z,85.15
2022-11-05T14:46:13.890Z,84.68
2022-11-05T14:49:09.142Z,84.02
2022-11-05T14:51:57.302Z,81.56
2022-11-05T14:54:50.853Z,80.88
2022-11-05T14:57:41.636Z,81.45
2022-11-05T15:00:29.739Z,82.99
2022-11-05T15:03:46.856Z,84.26
2022-11-05T15:06:38.762Z,84.38
2022-11-05T15:09:51.631Z,84.85
2022-11-05T15:12:39.661Z,84.52
2022-11-05T15:15:27.959Z,85.20
2022-11-05T15:18:45.874Z,85.26
2022-11-05T15:21:39.349Z,85.38
2022-11-05T15:24:26.430Z,85.60
2022-11-05T15:27:27.622Z,85.85
2022-11-05T15:30:21.859Z,86.19
2022-11-05T15:33:19.020Z,86.15
2022-11-05T15:36:27.782Z,86.69
2022-11-05T15:39:38.611Z,86.85
2022-11-05T15:42:25.834Z,86.92
2022-11-05T15:45:20.553Z,86.39
2022-11-05T15:48:18.974Z,86.75
2022-11-05T15:51:04.723Z,87.07
2022-11-05T15:54:23.924Z,87.08
2022-11-05T15:56:57.185Z,86.95
2022-11-05T15:59:46.864Z,86.90
2022-11-05T16:02:34.511Z,86.67
2022-11-05T16:05:20.384Z,87.16
2022-11-05T16:08:05.492Z,87.10
2022-11-05T16:10:53.661Z,87.78
2022-11-05T16:13:43.045Z,87.57
2022-11-05T16:16:33.895Z,87.53
2022-11-05T16:19:41.751Z,87.65
2022-11-05T16:22:54.643Z,87.79
2022-11-05T16:25:43.315Z,87.98
2022-11-05T16:28:29.901Z,87.94
2022-11-05T16:31:15.036Z,88.34
2022-11-05T16:34:01.639Z,88.54
2022-11-05T16:36:46.723Z,88.36
2022-11-05T16:39:31.576Z,87.78
2022-11-05T16:42:22.419Z,87.49
2022-11-05T16:45:11.395Z,87.49
2022-11-05T16:47:56.513Z,87.61
2022-11-05T16:50:42.602Z,87.86
2022-11-05T16:53:27.976Z,87.92
2022-11-05T16:56:21.342Z,88.08
2022-11-05T16:59:09.319Z,87.92
2022-11-05T17:01:56.014Z,87.12
2022-11-05T17:04:41.591Z,87.11
2022-11-05T17:07:26.908Z,87.05
2022-11-05T17:10:11.844Z,86.82
2022-11-05T17:12:56.938Z,87.41
2022-11-05T17:15:43.888Z,87.27
2022-11-05T17:18:28.925Z,87.09
2022-11-05T17:21:13.783Z,86.62
2022-11-05T17:23:59.079Z,86.59
2022-11-05T17:26:44.544Z,86.44
2022-11-05T17:29:29.878Z,86.37
2022-11-05T17:32:14.697Z,86.96
2022-11-05T17:34:59.513Z,86.90
2022-11-05T17:37:44.533Z,86.77
2022-11-05T17:40:29.761Z,86.99
2022-11-05T17:43:15.150Z,87.24
2022-11-05T17:46:04.359Z,87.01
2022-11-05T17:48:49.539Z,87.06
2022-11-05T17:51:34.683Z,87.11
2022-11-05T17:54:19.555Z,87.45
2022-11-05T17:57:05.098Z,87.58
2022-11-05T17:59:50.257Z,87.42
2022-11-05T18:02:35.303Z,87.48
2022-11-05T18:05:22.022Z,87.38
2022-11-05T18:08:08.530Z,87.57
2022-11-05T18:10:53.955Z,87.89
2022-11-05T18:13:39.026Z,88.20
2022-11-05T18:16:24.557Z,88.24
2022-11-05T18:19:12.955Z,88.21
2022-11-05T18:21:58.024Z,88.17
2022-11-05T18:24:43.720Z,88.29
2022-11-05T18:27:28.836Z,88.62
2022-11-05T18:30:14.056Z,88.56
2022-11-05T18:32:59.175Z,88.69
2022-11-05T18:35:44.565Z,89.12
2022-11-05T18:38:35.391Z,89.38
2022-11-05T18:41:21.652Z,89.68
2022-11-05T18:44:07.110Z,90.00
2022-11-05T18:46:57.942Z,89.86
2022-11-05T18:49:43.731Z,90.07
2022-11-05T18:52:28.540Z,90.38
2022-11-05T18:55:13.387Z,90.27
2022-11-05T18:57:58.329Z,90.14
2022-11-05T19:00:43.158Z,90.64
2022-11-05T19:03:28.577Z,90.53
2022-11-05T19:06:13.787Z,90.84
2022-11-05T19:08:58.924Z,91.02
2022-11-05T19:11:43.725Z,91.12
2022-11-05T19:14:29.236Z,91.27
2022-11-05T19:17:15.469Z,91.42
2022-11-05T19:20:08.002Z,91.36
2022-11-05T19:22:53.243Z,91.48
2022-11-05T19:25:44.116Z,91.98
2022-11-05T19:28:29.028Z,92.24
2022-11-05T19:31:17.555Z,91.91
2022-11-05T19:34:04.681Z,92.28
2022-11-05T19:36:49.764Z,92.68
2022-11-05T19:39:35.745Z,92.44
2022-11-05T19:42:27.242Z,92.42
2022-11-05T19:45:38.215Z,92.95
2022-11-05T19:48:19.689Z,93.04
2022-11-05T19:51:16.177Z,92.93
2022-11-05T19:54:02.279Z,93.13
2022-11-05T19:56:50.073Z,93.33
2022-11-05T19:59:35.209Z,93.30
2022-11-05T20:02:20.156Z,93.44
2022-11-05T20:05:05.586Z,93.11
2022-11-05T20:07:52.992Z,92.85
2022-11-05T20:10:38.347Z,92.84
2022-11-05T20:13:23.953Z,92.94
2022-11-05T20:16:19.712Z,92.87
2022-11-05T20:19:07.555Z,93.13
2022-11-05T20:21:52.612Z,93.31
2022-11-05T20:24:38.212Z,93.19
2022-11-05T20:27:23.351Z,93.16
2022-11-05T20:30:09.345Z,93.41
2022-11-05T20:32:56.284Z,93.23
2022-11-05T20:35:41.799Z,93.73
2022-11-05T20:38:27.222Z,93.72
2022-11-05T20:41:14.192Z,93.55
2022-11-05T20:43:59.393Z,93.68
2022-11-05T20:46:44.804Z,93.74
2022-11-05T20:49:31.755Z,94.17
2022-11-05T20:52:16.818Z,93.76
2022-11-05T20:55:01.811Z,93.96
2022-11-05T20:57:47.241Z,94.40
2022-11-05T21:00:32.074Z,94.14
2022-11-05T21:03:17.765Z,94.20
2022-11-05T21:06:05.037Z,94.32
2022-11-05T21:08:51.327Z,94.48
2022-11-05T21:11:36.461Z,94.31
2022-11-05T21:14:24.823Z,94.56
2022-11-05T21:17:13.508Z,94.54
2022-11-05T21:19:58.560Z,94.80
2022-11-05T21:22:43.877Z,94.49
2022-11-05T21:25:28.804Z,94.52
2022-11-05T21:28:15.963Z,94.68
2022-11-05T21:31:02.729Z,94.79
2022-11-05T21:33:53.959Z,94.46
2022-11-05T21:36:46.496Z,94.58
2022-11-05T21:39:33.210Z,94.80
2022-11-05T21:42:24.344Z,94.96
2022-11-05T21:45:10.682Z,95.13
2022-11-05T21:47:56.352Z,95.29
2022-11-05T21:50:42.081Z,95.17
2022-11-05T21:53:27.442Z,95.20
2022-11-05T21:56:24.315Z,95.42
2022-11-05T21:59:18.026Z,95.43
2022-11-05T22:02:04.570Z,95.42
2022-11-05T22:04:52.902Z,95.37
2022-11-05T22:07:39.059Z,95.51
2022-11-05T22:10:24.243Z,95.60
2022-11-05T22:13:09.526Z,95.49
2022-11-05T22:15:57.787Z,95.69
2022-11-05T22:18:42.645Z,95.67
2022-11-05T22:21:27.541Z,95.49
2022-11-05T22:24:12.768Z,95.80
2022-11-05T22:27:04.163Z,95.71
2022-11-05T22:29:49.960Z,95.61
2022-11-05T22:32:35.029Z,95.12
2022-11-05T22:35:19.938Z,95.41
2022-11-05T22:38:05.456Z,95.24
2022-11-05T22:40:50.869Z,95.66
2022-11-05T22:43:36.531Z,95.08
2022-11-05T22:46:24.232Z,94.96
2022-11-05T22:49:09.383Z,94.93
2022-11-05T22:51:54.626Z,94.78
2022-11-05T22:54:39.702Z,95.19
2022-11-05T22:57:24.722Z,94.73
2022-11-05T23:00:16.159Z,95.21
2022-11-05T23:03:01.684Z,95.23
2022-11-05T23:05:47.095Z,95.14
2022-11-05T23:08:33.534Z,95.24
2022-11-05T23:11:21.211Z,95.12
2022-11-05T23:14:12.239Z,95.07
2022-11-05T23:16:57.108Z,95.02
2022-11-05T23:19:42.715Z,95.21
2022-11-05T23:22:29.349Z,95.32
2022-11-05T23:25:20.327Z,95.31
2022-11-05T23:28:07.950Z,95.27
2022-11-05T23:30:53.305Z,95.21
2022-11-05T23:33:38.720Z,95.51
2022-11-05T23:36:23.910Z,95.54
2022-11-05T23:39:09.132Z,95.37
2022-11-05T23:41:53.910Z,95.31
2022-11-05T23:44:38.945Z,95.23
2022-11-05T23:47:23.752Z,95.31
2022-11-05T23:50:08.822Z,95.24
2022-11-05T23:52:54.310Z,95.41
2022-11-05T23:55:39.462Z,95.24
2022-11-05T23:58:24.482Z,95.50
